sensor_id;sensor_type;location;lat;lon;timestamp;P1;durP1;ratioP1;P2;durP2;ratioP2
64871;SDS011;51351;51.450;6.614;2023-07-22T00:01:02;9.02;;;6.22;;
64871;SDS011;51351;51.450;6.614;2023-07-22T00:03:28;10.10;;;6.13;;
64871;SDS011;51351;51.450;6.614;2023-07-22T00:06:04;10.13;;;6.10;;
64871;SDS011;51351;51.450;6.614;2023-07-22T00:08:32;11.73;;;6.55;;
64871;SDS011;51351;51.450;6.614;2023-07-22T00:10:58;8.57;;;5.60;;
64871;SDS011;51351;51.450;6.614;2023-07-22T00:13:24;10.20;;;5.97;;
64871;SDS011;51351;51.450;6.614;2023-07-22T00:15:54;7.97;;;5.50;;
64871;SDS011;51351;51.450;6.614;2023-07-22T00:18:22;8.98;;;5.60;;
64871;SDS011;51351;51.450;6.614;2023-07-22T00:20:49;8.32;;;6.40;;
64871;SDS011;51351;51.450;6.614;2023-07-22T00:23:16;10.80;;;6.18;;
64871;SDS011;51351;51.450;6.614;2023-07-22T00:25:42;9.70;;;5.70;;
64871;SDS011;51351;51.450;6.614;2023-07-22T00:28:08;11.02;;;7.13;;
64871;SDS011;51351;51.450;6.614;2023-07-22T00:30:35;9.88;;;6.15;;
64871;SDS011;51351;51.450;6.614;2023-07-22T00:33:02;9.93;;;5.93;;
64871;SDS011;51351;51.450;6.614;2023-07-22T00:35:29;9.23;;;5.32;;
64871;SDS011;51351;51.450;6.614;2023-07-22T00:37:57;8.75;;;5.47;;
64871;SDS011;51351;51.450;6.614;2023-07-22T00:40:24;10.73;;;5.57;;
64871;SDS011;51351;51.450;6.614;2023-07-22T00:45:16;8.88;;;5.32;;
64871;SDS011;51351;51.450;6.614;2023-07-22T00:47:42;7.57;;;5.18;;
64871;SDS011;51351;51.450;6.614;2023-07-22T00:50:10;9.10;;;5.65;;
64871;SDS011;51351;51.450;6.614;2023-07-22T00:52:36;8.10;;;5.22;;
64871;SDS011;51351;51.450;6.614;2023-07-22T00:55:04;8.98;;;5.72;;
64871;SDS011;51351;51.450;6.614;2023-07-22T00:57:31;8.90;;;5.35;;
64871;SDS011;51351;51.450;6.614;2023-07-22T00:59:57;9.73;;;5.55;;
64871;SDS011;51351;51.450;6.614;2023-07-22T01:02:25;8.50;;;5.40;;
64871;SDS011;51351;51.450;6.614;2023-07-22T01:04:51;10.40;;;5.65;;
64871;SDS011;51351;51.450;6.614;2023-07-22T01:07:18;7.70;;;6.25;;
64871;SDS011;51351;51.450;6.614;2023-07-22T01:09:44;8.43;;;5.57;;
64871;SDS011;51351;51.450;6.614;2023-07-22T01:12:11;12.20;;;6.30;;
64871;SDS011;51351;51.450;6.614;2023-07-22T01:14:41;7.78;;;5.65;;
64871;SDS011;51351;51.450;6.614;2023-07-22T01:17:08;10.25;;;5.95;;
64871;SDS011;51351;51.450;6.614;2023-07-22T01:19:35;8.95;;;5.95;;
64871;SDS011;51351;51.450;6.614;2023-07-22T01:22:02;11.77;;;6.78;;
64871;SDS011;51351;51.450;6.614;2023-07-22T01:24:30;8.88;;;5.78;;
64871;SDS011;51351;51.450;6.614;2023-07-22T01:26:57;11.98;;;6.80;;
64871;SDS011;51351;51.450;6.614;2023-07-22T01:29:24;9.05;;;5.43;;
64871;SDS011;51351;51.450;6.614;2023-07-22T01:31:51;9.43;;;6.15;;
64871;SDS011;51351;51.450;6.614;2023-07-22T01:34:18;7.85;;;5.82;;
64871;SDS011;51351;51.450;6.614;2023-07-22T01:36:44;10.77;;;5.15;;
64871;SDS011;51351;51.450;6.614;2023-07-22T01:39:11;9.50;;;6.20;;
64871;SDS011;51351;51.450;6.614;2023-07-22T01:41:40;9.38;;;5.72;;
64871;SDS011;51351;51.450;6.614;2023-07-22T01:44:06;8.25;;;5.55;;
64871;SDS011;51351;51.450;6.614;2023-07-22T01:46:33;9.80;;;6.47;;
64871;SDS011;51351;51.450;6.614;2023-07-22T01:51:27;12.82;;;6.65;;
64871;SDS011;51351;51.450;6.614;2023-07-22T01:53:53;8.95;;;5.78;;
64871;SDS011;51351;51.450;6.614;2023-07-22T01:56:22;8.57;;;5.78;;
64871;SDS011;51351;51.450;6.614;2023-07-22T01:58:49;11.70;;;6.35;;
64871;SDS011;51351;51.450;6.614;2023-07-22T02:01:15;11.15;;;6.53;;
64871;SDS011;51351;51.450;6.614;2023-07-22T02:03:49;8.57;;;5.47;;
64871;SDS011;51351;51.450;6.614;2023-07-22T02:06:15;8.85;;;6.15;;
64871;SDS011;51351;51.450;6.614;2023-07-22T02:08:41;9.23;;;6.28;;
64871;SDS011;51351;51.450;6.614;2023-07-22T02:11:08;9.20;;;5.97;;
64871;SDS011;51351;51.450;6.614;2023-07-22T02:13:35;8.52;;;5.82;;
64871;SDS011;51351;51.450;6.614;2023-07-22T02:16:01;12.20;;;7.25;;
64871;SDS011;51351;51.450;6.614;2023-07-22T02:18:28;11.57;;;6.53;;
64871;SDS011;51351;51.450;6.614;2023-07-22T02:20:54;9.93;;;5.95;;
64871;SDS011;51351;51.450;6.614;2023-07-22T02:23:21;10.35;;;6.10;;
64871;SDS011;51351;51.450;6.614;2023-07-22T02:25:51;7.47;;;5.57;;
64871;SDS011;51351;51.450;6.614;2023-07-22T02:28:19;11.70;;;5.53;;
64871;SDS011;51351;51.450;6.614;2023-07-22T02:30:47;8.23;;;4.90;;
64871;SDS011;51351;51.450;6.614;2023-07-22T02:33:14;9.27;;;5.68;;
64871;SDS011;51351;51.450;6.614;2023-07-22T02:35:42;9.95;;;5.80;;
64871;SDS011;51351;51.450;6.614;2023-07-22T02:38:08;7.20;;;5.22;;
64871;SDS011;51351;51.450;6.614;2023-07-22T02:40:35;8.95;;;5.78;;
64871;SDS011;51351;51.450;6.614;2023-07-22T02:45:27;9.20;;;5.85;;
64871;SDS011;51351;51.450;6.614;2023-07-22T02:47:59;10.07;;;5.00;;
64871;SDS011;51351;51.450;6.614;2023-07-22T02:52:54;8.48;;;5.78;;
64871;SDS011;51351;51.450;6.614;2023-07-22T02:55:21;10.30;;;5.53;;
64871;SDS011;51351;51.450;6.614;2023-07-22T02:57:49;9.80;;;5.95;;
64871;SDS011;51351;51.450;6.614;2023-07-22T03:00:15;8.13;;;5.57;;
64871;SDS011;51351;51.450;6.614;2023-07-22T03:02:53;10.52;;;5.88;;
64871;SDS011;51351;51.450;6.614;2023-07-22T03:05:26;7.70;;;5.30;;
64871;SDS011;51351;51.450;6.614;2023-07-22T03:07:56;8.50;;;5.80;;
64871;SDS011;51351;51.450;6.614;2023-07-22T03:10:24;9.27;;;5.25;;
64871;SDS011;51351;51.450;6.614;2023-07-22T03:12:55;9.55;;;5.90;;
64871;SDS011;51351;51.450;6.614;2023-07-22T03:15:22;8.25;;;5.60;;
64871;SDS011;51351;51.450;6.614;2023-07-22T03:17:54;10.40;;;5.30;;
64871;SDS011;51351;51.450;6.614;2023-07-22T03:20:25;8.65;;;5.35;;
64871;SDS011;51351;51.450;6.614;2023-07-22T03:22:51;9.05;;;6.45;;
64871;SDS011;51351;51.450;6.614;2023-07-22T03:25:19;8.02;;;5.80;;
64871;SDS011;51351;51.450;6.614;2023-07-22T03:27:45;9.93;;;5.45;;
64871;SDS011;51351;51.450;6.614;2023-07-22T03:30:15;7.45;;;5.18;;
64871;SDS011;51351;51.450;6.614;2023-07-22T03:32:43;8.75;;;5.32;;
64871;SDS011;51351;51.450;6.614;2023-07-22T03:35:18;9.30;;;5.50;;
64871;SDS011;51351;51.450;6.614;2023-07-22T03:37:44;8.90;;;6.05;;
64871;SDS011;51351;51.450;6.614;2023-07-22T03:40:11;9.93;;;5.38;;
64871;SDS011;51351;51.450;6.614;2023-07-22T03:42:40;8.30;;;4.85;;
64871;SDS011;51351;51.450;6.614;2023-07-22T03:45:07;8.73;;;6.00;;
64871;SDS011;51351;51.450;6.614;2023-07-22T03:47:35;8.68;;;5.45;;
64871;SDS011;51351;51.450;6.614;2023-07-22T03:50:01;13.88;;;6.50;;
64871;SDS011;51351;51.450;6.614;2023-07-22T03:52:28;9.98;;;5.70;;
64871;SDS011;51351;51.450;6.614;2023-07-22T03:57:24;10.88;;;5.63;;
64871;SDS011;51351;51.450;6.614;2023-07-22T03:59:55;10.05;;;5.53;;
64871;SDS011;51351;51.450;6.614;2023-07-22T04:02:22;7.85;;;4.90;;
64871;SDS011;51351;51.450;6.614;2023-07-22T04:04:49;8.82;;;5.30;;
64871;SDS011;51351;51.450;6.614;2023-07-22T04:07:16;9.00;;;5.53;;
64871;SDS011;51351;51.450;6.614;2023-07-22T04:09:43;10.13;;;5.03;;
64871;SDS011;51351;51.450;6.614;2023-07-22T04:12:10;8.48;;;5.78;;
64871;SDS011;51351;51.450;6.614;2023-07-22T04:14:37;7.90;;;5.45;;
64871;SDS011;51351;51.450;6.614;2023-07-22T04:17:04;8.93;;;5.53;;
64871;SDS011;51351;51.450;6.614;2023-07-22T04:19:31;9.48;;;5.70;;
64871;SDS011;51351;51.450;6.614;2023-07-22T04:21:57;9.65;;;5.50;;
64871;SDS011;51351;51.450;6.614;2023-07-22T04:24:23;9.73;;;5.43;;
64871;SDS011;51351;51.450;6.614;2023-07-22T04:26:50;9.88;;;5.95;;
64871;SDS011;51351;51.450;6.614;2023-07-22T04:29:16;12.40;;;6.43;;
64871;SDS011;51351;51.450;6.614;2023-07-22T04:31:42;9.85;;;6.07;;
64871;SDS011;51351;51.450;6.614;2023-07-22T04:34:08;10.50;;;5.32;;
64871;SDS011;51351;51.450;6.614;2023-07-22T04:36:37;8.15;;;5.22;;
64871;SDS011;51351;51.450;6.614;2023-07-22T04:39:03;12.55;;;5.80;;
64871;SDS011;51351;51.450;6.614;2023-07-22T04:41:31;8.82;;;5.22;;
64871;SDS011;51351;51.450;6.614;2023-07-22T04:43:57;8.48;;;5.75;;
64871;SDS011;51351;51.450;6.614;2023-07-22T04:46:24;8.52;;;5.90;;
64871;SDS011;51351;51.450;6.614;2023-07-22T04:48:55;8.57;;;5.38;;
64871;SDS011;51351;51.450;6.614;2023-07-22T04:51:22;8.85;;;4.70;;
64871;SDS011;51351;51.450;6.614;2023-07-22T04:53:48;10.05;;;5.07;;
64871;SDS011;51351;51.450;6.614;2023-07-22T04:56:14;9.38;;;5.47;;
64871;SDS011;51351;51.450;6.614;2023-07-22T04:58:40;9.73;;;6.07;;
64871;SDS011;51351;51.450;6.614;2023-07-22T05:01:06;7.70;;;6.40;;
64871;SDS011;51351;51.450;6.614;2023-07-22T05:03:32;9.10;;;5.05;;
64871;SDS011;51351;51.450;6.614;2023-07-22T05:05:58;8.02;;;5.13;;
64871;SDS011;51351;51.450;6.614;2023-07-22T05:08:24;6.38;;;4.47;;
64871;SDS011;51351;51.450;6.614;2023-07-22T05:10:50;9.52;;;5.10;;
64871;SDS011;51351;51.450;6.614;2023-07-22T05:13:16;8.05;;;5.20;;
64871;SDS011;51351;51.450;6.614;2023-07-22T05:15:42;8.68;;;6.25;;
64871;SDS011;51351;51.450;6.614;2023-07-22T05:18:08;7.45;;;4.63;;
64871;SDS011;51351;51.450;6.614;2023-07-22T05:20:34;10.98;;;5.20;;
64871;SDS011;51351;51.450;6.614;2023-07-22T05:23:00;6.78;;;4.47;;
64871;SDS011;51351;51.450;6.614;2023-07-22T05:25:26;9.48;;;5.35;;
64871;SDS011;51351;51.450;6.614;2023-07-22T05:27:52;7.65;;;5.53;;
64871;SDS011;51351;51.450;6.614;2023-07-22T05:30:18;8.25;;;4.53;;
64871;SDS011;51351;51.450;6.614;2023-07-22T05:32:44;11.10;;;6.18;;
64871;SDS011;51351;51.450;6.614;2023-07-22T05:35:10;6.85;;;4.78;;
64871;SDS011;51351;51.450;6.614;2023-07-22T05:37:36;10.52;;;5.25;;
64871;SDS011;51351;51.450;6.614;2023-07-22T05:40:05;9.35;;;5.22;;
64871;SDS011;51351;51.450;6.614;2023-07-22T05:42:33;11.05;;;5.78;;
64871;SDS011;51351;51.450;6.614;2023-07-22T05:44:59;8.85;;;5.22;;
64871;SDS011;51351;51.450;6.614;2023-07-22T05:47:28;8.60;;;5.03;;
64871;SDS011;51351;51.450;6.614;2023-07-22T05:49:54;7.20;;;4.85;;
64871;SDS011;51351;51.450;6.614;2023-07-22T05:52:20;8.20;;;5.18;;
64871;SDS011;51351;51.450;6.614;2023-07-22T05:54:46;7.43;;;5.15;;
64871;SDS011;51351;51.450;6.614;2023-07-22T05:57:41;10.88;;;5.78;;
64871;SDS011;51351;51.450;6.614;2023-07-22T06:00:07;8.75;;;4.93;;
64871;SDS011;51351;51.450;6.614;2023-07-22T06:02:38;8.48;;;4.80;;
64871;SDS011;51351;51.450;6.614;2023-07-22T06:05:07;8.73;;;4.95;;
64871;SDS011;51351;51.450;6.614;2023-07-22T06:07:34;9.18;;;5.75;;
64871;SDS011;51351;51.450;6.614;2023-07-22T06:10:03;9.07;;;5.13;;
64871;SDS011;51351;51.450;6.614;2023-07-22T06:12:31;9.35;;;5.85;;
64871;SDS011;51351;51.450;6.614;2023-07-22T06:14:58;8.45;;;5.63;;
64871;SDS011;51351;51.450;6.614;2023-07-22T06:17:27;10.77;;;5.35;;
64871;SDS011;51351;51.450;6.614;2023-07-22T06:19:55;8.75;;;5.40;;
64871;SDS011;51351;51.450;6.614;2023-07-22T06:22:21;7.63;;;5.15;;
64871;SDS011;51351;51.450;6.614;2023-07-22T06:24:48;7.95;;;5.57;;
64871;SDS011;51351;51.450;6.614;2023-07-22T06:27:16;10.63;;;5.40;;
64871;SDS011;51351;51.450;6.614;2023-07-22T06:29:45;9.48;;;5.65;;
64871;SDS011;51351;51.450;6.614;2023-07-22T06:32:12;10.73;;;7.35;;
64871;SDS011;51351;51.450;6.614;2023-07-22T06:34:40;8.10;;;5.10;;
64871;SDS011;51351;51.450;6.614;2023-07-22T06:37:09;7.70;;;4.72;;
64871;SDS011;51351;51.450;6.614;2023-07-22T06:39:38;11.40;;;5.82;;
64871;SDS011;51351;51.450;6.614;2023-07-22T06:42:05;10.15;;;6.00;;
64871;SDS011;51351;51.450;6.614;2023-07-22T06:44:32;9.13;;;5.75;;
64871;SDS011;51351;51.450;6.614;2023-07-22T06:47:11;10.52;;;5.20;;
64871;SDS011;51351;51.450;6.614;2023-07-22T06:49:59;9.90;;;5.75;;
64871;SDS011;51351;51.450;6.614;2023-07-22T06:52:43;8.63;;;5.15;;
64871;SDS011;51351;51.450;6.614;2023-07-22T06:55:09;9.35;;;5.65;;
64871;SDS011;51351;51.450;6.614;2023-07-22T06:57:39;9.55;;;5.90;;
64871;SDS011;51351;51.450;6.614;2023-07-22T07:00:08;8.52;;;5.47;;
64871;SDS011;51351;51.450;6.614;2023-07-22T07:02:46;9.30;;;5.60;;
64871;SDS011;51351;51.450;6.614;2023-07-22T07:08:13;8.85;;;5.72;;
64871;SDS011;51351;51.450;6.614;2023-07-22T07:10:43;11.35;;;5.90;;
64871;SDS011;51351;51.450;6.614;2023-07-22T07:13:12;9.65;;;5.45;;
64871;SDS011;51351;51.450;6.614;2023-07-22T07:15:40;10.23;;;6.38;;
64871;SDS011;51351;51.450;6.614;2023-07-22T07:18:14;9.90;;;5.30;;
64871;SDS011;51351;51.450;6.614;2023-07-22T07:20:44;8.85;;;4.85;;
64871;SDS011;51351;51.450;6.614;2023-07-22T07:23:12;9.40;;;5.22;;
64871;SDS011;51351;51.450;6.614;2023-07-22T07:25:44;9.98;;;5.68;;
64871;SDS011;51351;51.450;6.614;2023-07-22T07:28:24;9.27;;;5.68;;
64871;SDS011;51351;51.450;6.614;2023-07-22T07:30:51;9.70;;;6.18;;
64871;SDS011;51351;51.450;6.614;2023-07-22T07:33:18;9.25;;;6.18;;
64871;SDS011;51351;51.450;6.614;2023-07-22T07:35:47;8.95;;;6.05;;
64871;SDS011;51351;51.450;6.614;2023-07-22T07:38:13;10.30;;;5.75;;
64871;SDS011;51351;51.450;6.614;2023-07-22T07:40:39;7.95;;;5.18;;
64871;SDS011;51351;51.450;6.614;2023-07-22T07:43:06;9.20;;;5.53;;
64871;SDS011;51351;51.450;6.614;2023-07-22T07:45:33;7.40;;;4.85;;
64871;SDS011;51351;51.450;6.614;2023-07-22T07:48:08;8.77;;;4.80;;
64871;SDS011;51351;51.450;6.614;2023-07-22T07:53:00;8.85;;;5.57;;
64871;SDS011;51351;51.450;6.614;2023-07-22T07:55:26;8.65;;;5.18;;
64871;SDS011;51351;51.450;6.614;2023-07-22T07:57:59;8.57;;;5.28;;
64871;SDS011;51351;51.450;6.614;2023-07-22T08:02:55;7.63;;;4.90;;
64871;SDS011;51351;51.450;6.614;2023-07-22T08:05:44;10.55;;;4.68;;
64871;SDS011;51351;51.450;6.614;2023-07-22T08:08:11;9.65;;;5.45;;
64871;SDS011;51351;51.450;6.614;2023-07-22T08:11:11;7.55;;;4.85;;
64871;SDS011;51351;51.450;6.614;2023-07-22T08:13:44;7.65;;;4.82;;
64871;SDS011;51351;51.450;6.614;2023-07-22T08:16:11;7.88;;;5.03;;
64871;SDS011;51351;51.450;6.614;2023-07-22T08:18:41;7.10;;;4.90;;
64871;SDS011;51351;51.450;6.614;2023-07-22T08:21:13;8.20;;;4.60;;
64871;SDS011;51351;51.450;6.614;2023-07-22T08:23:43;6.60;;;4.13;;
64871;SDS011;51351;51.450;6.614;2023-07-22T08:26:34;7.40;;;4.22;;
64871;SDS011;51351;51.450;6.614;2023-07-22T08:29:04;7.57;;;4.53;;
64871;SDS011;51351;51.450;6.614;2023-07-22T08:31:33;8.73;;;4.63;;
64871;SDS011;51351;51.450;6.614;2023-07-22T08:34:00;6.25;;;4.45;;
64871;SDS011;51351;51.450;6.614;2023-07-22T08:36:26;6.07;;;4.00;;
64871;SDS011;51351;51.450;6.614;2023-07-22T08:38:56;6.70;;;4.32;;
64871;SDS011;51351;51.450;6.614;2023-07-22T08:41:24;7.22;;;4.00;;
64871;SDS011;51351;51.450;6.614;2023-07-22T08:43:55;7.25;;;3.85;;
64871;SDS011;51351;51.450;6.614;2023-07-22T08:46:27;7.15;;;4.00;;
64871;SDS011;51351;51.450;6.614;2023-07-22T08:49:28;6.03;;;4.32;;
64871;SDS011;51351;51.450;6.614;2023-07-22T08:51:55;6.20;;;4.20;;
64871;SDS011;51351;51.450;6.614;2023-07-22T08:54:24;7.75;;;3.72;;
64871;SDS011;51351;51.450;6.614;2023-07-22T08:57:04;10.65;;;4.50;;
64871;SDS011;51351;51.450;6.614;2023-07-22T08:59:33;7.15;;;3.50;;
64871;SDS011;51351;51.450;6.614;2023-07-22T09:02:05;4.47;;;3.08;;
64871;SDS011;51351;51.450;6.614;2023-07-22T09:04:36;7.80;;;3.13;;
64871;SDS011;51351;51.450;6.614;2023-07-22T09:07:04;5.13;;;3.53;;
64871;SDS011;51351;51.450;6.614;2023-07-22T09:09:33;5.63;;;2.97;;
64871;SDS011;51351;51.450;6.614;2023-07-22T09:12:01;4.60;;;3.45;;
64871;SDS011;51351;51.450;6.614;2023-07-22T09:14:35;7.00;;;3.25;;
64871;SDS011;51351;51.450;6.614;2023-07-22T09:17:10;3.78;;;2.70;;
64871;SDS011;51351;51.450;6.614;2023-07-22T09:19:38;4.50;;;2.83;;
64871;SDS011;51351;51.450;6.614;2023-07-22T09:22:08;5.07;;;3.45;;
64871;SDS011;51351;51.450;6.614;2023-07-22T09:24:39;7.28;;;3.13;;
64871;SDS011;51351;51.450;6.614;2023-07-22T09:27:33;7.88;;;3.80;;
64871;SDS011;51351;51.450;6.614;2023-07-22T09:35:31;5.20;;;3.15;;
64871;SDS011;51351;51.450;6.614;2023-07-22T09:38:10;4.82;;;2.90;;
64871;SDS011;51351;51.450;6.614;2023-07-22T09:40:41;5.25;;;2.20;;
64871;SDS011;51351;51.450;6.614;2023-07-22T09:43:10;4.75;;;2.90;;
64871;SDS011;51351;51.450;6.614;2023-07-22T09:45:39;5.25;;;2.83;;
64871;SDS011;51351;51.450;6.614;2023-07-22T09:48:12;5.55;;;2.88;;
64871;SDS011;51351;51.450;6.614;2023-07-22T09:50:39;6.05;;;3.42;;
64871;SDS011;51351;51.450;6.614;2023-07-22T09:53:06;5.53;;;2.42;;
64871;SDS011;51351;51.450;6.614;2023-07-22T09:55:53;4.30;;;2.63;;
64871;SDS011;51351;51.450;6.614;2023-07-22T09:58:30;9.45;;;2.50;;
64871;SDS011;51351;51.450;6.614;2023-07-22T10:01:19;3.90;;;2.35;;
64871;SDS011;51351;51.450;6.614;2023-07-22T10:03:49;4.22;;;2.53;;
64871;SDS011;51351;51.450;6.614;2023-07-22T10:06:21;4.93;;;2.35;;
64871;SDS011;51351;51.450;6.614;2023-07-22T10:08:54;5.35;;;2.47;;
64871;SDS011;51351;51.450;6.614;2023-07-22T10:11:22;5.55;;;2.67;;
64871;SDS011;51351;51.450;6.614;2023-07-22T10:13:51;3.20;;;2.30;;
64871;SDS011;51351;51.450;6.614;2023-07-22T10:16:18;5.18;;;2.50;;
64871;SDS011;51351;51.450;6.614;2023-07-22T10:18:45;4.65;;;2.63;;
64871;SDS011;51351;51.450;6.614;2023-07-22T10:21:12;3.50;;;2.20;;
64871;SDS011;51351;51.450;6.614;2023-07-22T10:23:39;4.85;;;2.38;;
64871;SDS011;51351;51.450;6.614;2023-07-22T10:26:06;4.60;;;2.72;;
64871;SDS011;51351;51.450;6.614;2023-07-22T10:28:32;3.08;;;1.90;;
64871;SDS011;51351;51.450;6.614;2023-07-22T10:30:59;3.33;;;2.83;;
64871;SDS011;51351;51.450;6.614;2023-07-22T10:33:25;3.58;;;2.17;;
64871;SDS011;51351;51.450;6.614;2023-07-22T10:36:13;3.40;;;2.15;;
64871;SDS011;51351;51.450;6.614;2023-07-22T10:38:41;2.55;;;2.00;;
64871;SDS011;51351;51.450;6.614;2023-07-22T10:41:12;5.05;;;2.25;;
64871;SDS011;51351;51.450;6.614;2023-07-22T10:43:43;4.18;;;2.13;;
64871;SDS011;51351;51.450;6.614;2023-07-22T10:46:33;3.15;;;2.25;;
64871;SDS011;51351;51.450;6.614;2023-07-22T10:49:13;4.63;;;2.00;;
64871;SDS011;51351;51.450;6.614;2023-07-22T10:51:40;3.05;;;2.00;;
64871;SDS011;51351;51.450;6.614;2023-07-22T10:54:12;2.90;;;1.63;;
64871;SDS011;51351;51.450;6.614;2023-07-22T10:56:43;2.72;;;1.80;;
64871;SDS011;51351;51.450;6.614;2023-07-22T10:59:10;4.68;;;1.98;;
64871;SDS011;51351;51.450;6.614;2023-07-22T11:01:37;4.93;;;2.00;;
64871;SDS011;51351;51.450;6.614;2023-07-22T11:07:04;4.95;;;1.92;;
64871;SDS011;51351;51.450;6.614;2023-07-22T11:14:31;2.88;;;1.80;;
64871;SDS011;51351;51.450;6.614;2023-07-22T11:17:01;2.83;;;1.65;;
64871;SDS011;51351;51.450;6.614;2023-07-22T11:19:29;3.95;;;1.60;;
64871;SDS011;51351;51.450;6.614;2023-07-22T11:22:03;2.45;;;1.33;;
64871;SDS011;51351;51.450;6.614;2023-07-22T11:24:32;5.28;;;1.40;;
64871;SDS011;51351;51.450;6.614;2023-07-22T11:27:05;4.53;;;1.95;;
64871;SDS011;51351;51.450;6.614;2023-07-22T11:29:32;2.65;;;1.38;;
64871;SDS011;51351;51.450;6.614;2023-07-22T11:31:58;3.63;;;2.05;;
64871;SDS011;51351;51.450;6.614;2023-07-22T11:34:27;4.60;;;1.83;;
64871;SDS011;51351;51.450;6.614;2023-07-22T11:36:54;4.05;;;1.90;;
64871;SDS011;51351;51.450;6.614;2023-07-22T11:39:23;2.83;;;1.42;;
64871;SDS011;51351;51.450;6.614;2023-07-22T11:41:53;3.47;;;1.67;;
64871;SDS011;51351;51.450;6.614;2023-07-22T11:44:20;2.75;;;1.65;;
64871;SDS011;51351;51.450;6.614;2023-07-22T11:49:33;1.60;;;1.40;;
64871;SDS011;51351;51.450;6.614;2023-07-22T11:54:34;2.75;;;1.35;;
64871;SDS011;51351;51.450;6.614;2023-07-22T11:57:14;4.63;;;1.50;;
64871;SDS011;51351;51.450;6.614;2023-07-22T11:59:44;4.30;;;1.83;;
64871;SDS011;51351;51.450;6.614;2023-07-22T12:02:21;6.13;;;1.80;;
64871;SDS011;51351;51.450;6.614;2023-07-22T12:05:05;2.28;;;1.40;;
64871;SDS011;51351;51.450;6.614;2023-07-22T12:07:35;2.63;;;1.65;;
64871;SDS011;51351;51.450;6.614;2023-07-22T12:10:03;2.92;;;1.83;;
64871;SDS011;51351;51.450;6.614;2023-07-22T12:12:41;3.15;;;2.58;;
64871;SDS011;51351;51.450;6.614;2023-07-22T12:15:13;2.08;;;1.42;;
64871;SDS011;51351;51.450;6.614;2023-07-22T12:17:56;2.97;;;1.75;;
64871;SDS011;51351;51.450;6.614;2023-07-22T12:20:25;1.80;;;1.38;;
64871;SDS011;51351;51.450;6.614;2023-07-22T12:22:55;3.42;;;1.55;;
64871;SDS011;51351;51.450;6.614;2023-07-22T12:25:22;2.83;;;1.90;;
64871;SDS011;51351;51.450;6.614;2023-07-22T12:27:48;8.75;;;3.78;;
64871;SDS011;51351;51.450;6.614;2023-07-22T12:30:15;3.10;;;1.65;;
64871;SDS011;51351;51.450;6.614;2023-07-22T12:32:45;3.17;;;1.63;;
64871;SDS011;51351;51.450;6.614;2023-07-22T12:35:11;2.55;;;2.25;;
64871;SDS011;51351;51.450;6.614;2023-07-22T12:37:39;3.17;;;2.05;;
64871;SDS011;51351;51.450;6.614;2023-07-22T12:40:05;3.00;;;1.70;;
64871;SDS011;51351;51.450;6.614;2023-07-22T12:42:36;4.53;;;1.90;;
64871;SDS011;51351;51.450;6.614;2023-07-22T12:45:03;3.50;;;1.67;;
64871;SDS011;51351;51.450;6.614;2023-07-22T12:47:32;3.47;;;1.40;;
64871;SDS011;51351;51.450;6.614;2023-07-22T12:52:26;3.08;;;1.50;;
64871;SDS011;51351;51.450;6.614;2023-07-22T12:54:53;2.42;;;1.23;;
64871;SDS011;51351;51.450;6.614;2023-07-22T12:57:20;3.03;;;1.67;;
64871;SDS011;51351;51.450;6.614;2023-07-22T12:59:46;3.15;;;2.03;;
64871;SDS011;51351;51.450;6.614;2023-07-22T13:02:12;4.72;;;1.73;;
64871;SDS011;51351;51.450;6.614;2023-07-22T13:04:38;3.05;;;1.60;;
64871;SDS011;51351;51.450;6.614;2023-07-22T13:07:04;3.65;;;1.67;;
64871;SDS011;51351;51.450;6.614;2023-07-22T13:09:30;4.05;;;1.60;;
64871;SDS011;51351;51.450;6.614;2023-07-22T13:14:22;5.93;;;1.52;;
64871;SDS011;51351;51.450;6.614;2023-07-22T13:19:14;3.80;;;1.30;;
64871;SDS011;51351;51.450;6.614;2023-07-22T13:24:06;2.70;;;1.27;;
64871;SDS011;51351;51.450;6.614;2023-07-22T13:28:59;2.53;;;1.80;;
64871;SDS011;51351;51.450;6.614;2023-07-22T13:33:54;3.90;;;1.52;;
64871;SDS011;51351;51.450;6.614;2023-07-22T13:36:23;3.50;;;2.03;;
64871;SDS011;51351;51.450;6.614;2023-07-22T13:41:15;2.95;;;1.40;;
64871;SDS011;51351;51.450;6.614;2023-07-22T13:46:06;2.38;;;1.45;;
64871;SDS011;51351;51.450;6.614;2023-07-22T13:48:32;3.03;;;1.50;;
64871;SDS011;51351;51.450;6.614;2023-07-22T13:51:01;4.20;;;1.42;;
64871;SDS011;51351;51.450;6.614;2023-07-22T13:53:27;2.95;;;1.45;;
64871;SDS011;51351;51.450;6.614;2023-07-22T13:55:53;2.33;;;1.73;;
64871;SDS011;51351;51.450;6.614;2023-07-22T13:58:19;3.38;;;1.45;;
64871;SDS011;51351;51.450;6.614;2023-07-22T14:00:45;3.65;;;1.50;;
64871;SDS011;51351;51.450;6.614;2023-07-22T14:03:11;2.25;;;1.40;;
64871;SDS011;51351;51.450;6.614;2023-07-22T14:05:40;5.50;;;1.40;;
64871;SDS011;51351;51.450;6.614;2023-07-22T14:08:09;4.35;;;1.45;;
64871;SDS011;51351;51.450;6.614;2023-07-22T14:13:01;2.33;;;1.52;;
64871;SDS011;51351;51.450;6.614;2023-07-22T14:15:27;2.15;;;1.40;;
64871;SDS011;51351;51.450;6.614;2023-07-22T14:17:53;2.42;;;1.38;;
64871;SDS011;51351;51.450;6.614;2023-07-22T14:20:19;4.15;;;1.75;;
64871;SDS011;51351;51.450;6.614;2023-07-22T14:22:45;6.10;;;2.28;;
64871;SDS011;51351;51.450;6.614;2023-07-22T14:25:11;1.85;;;1.30;;
64871;SDS011;51351;51.450;6.614;2023-07-22T14:27:38;3.10;;;2.28;;
64871;SDS011;51351;51.450;6.614;2023-07-22T14:30:05;4.05;;;1.90;;
64871;SDS011;51351;51.450;6.614;2023-07-22T14:32:32;5.50;;;1.83;;
64871;SDS011;51351;51.450;6.614;2023-07-22T14:34:58;3.80;;;1.60;;
64871;SDS011;51351;51.450;6.614;2023-07-22T14:37:24;4.20;;;2.00;;
64871;SDS011;51351;51.450;6.614;2023-07-22T14:39:50;2.50;;;1.83;;
64871;SDS011;51351;51.450;6.614;2023-07-22T14:42:16;5.22;;;1.63;;
64871;SDS011;51351;51.450;6.614;2023-07-22T14:44:42;3.83;;;1.98;;
64871;SDS011;51351;51.450;6.614;2023-07-22T14:49:34;2.33;;;1.42;;
64871;SDS011;51351;51.450;6.614;2023-07-22T14:52:00;4.60;;;1.90;;
64871;SDS011;51351;51.450;6.614;2023-07-22T14:54:26;3.00;;;1.80;;
64871;SDS011;51351;51.450;6.614;2023-07-22T14:56:52;2.70;;;1.77;;
64871;SDS011;51351;51.450;6.614;2023-07-22T14:59:18;9.93;;;1.73;;
64871;SDS011;51351;51.450;6.614;2023-07-22T15:01:44;2.88;;;1.65;;
64871;SDS011;51351;51.450;6.614;2023-07-22T15:04:10;1.58;;;1.23;;
64871;SDS011;51351;51.450;6.614;2023-07-22T15:06:36;3.20;;;1.33;;
64871;SDS011;51351;51.450;6.614;2023-07-22T15:09:02;2.70;;;1.55;;
64871;SDS011;51351;51.450;6.614;2023-07-22T15:11:33;2.90;;;1.20;;
64871;SDS011;51351;51.450;6.614;2023-07-22T15:14:03;2.22;;;1.13;;
64871;SDS011;51351;51.450;6.614;2023-07-22T15:16:30;4.35;;;1.55;;
64871;SDS011;51351;51.450;6.614;2023-07-22T15:18:56;3.60;;;1.20;;
64871;SDS011;51351;51.450;6.614;2023-07-22T15:21:22;3.72;;;1.30;;
64871;SDS011;51351;51.450;6.614;2023-07-22T15:23:48;3.05;;;1.50;;
64871;SDS011;51351;51.450;6.614;2023-07-22T15:26:14;3.95;;;1.42;;
64871;SDS011;51351;51.450;6.614;2023-07-22T15:28:40;1.88;;;1.17;;
64871;SDS011;51351;51.450;6.614;2023-07-22T15:33:36;2.65;;;1.40;;
64871;SDS011;51351;51.450;6.614;2023-07-22T15:36:02;2.78;;;1.20;;
64871;SDS011;51351;51.450;6.614;2023-07-22T15:38:29;1.80;;;1.05;;
64871;SDS011;51351;51.450;6.614;2023-07-22T15:40:55;2.72;;;1.50;;
64871;SDS011;51351;51.450;6.614;2023-07-22T15:43:21;1.85;;;1.50;;
64871;SDS011;51351;51.450;6.614;2023-07-22T15:45:47;2.63;;;1.30;;
64871;SDS011;51351;51.450;6.614;2023-07-22T15:50:47;4.22;;;1.30;;
64871;SDS011;51351;51.450;6.614;2023-07-22T15:53:17;2.25;;;1.15;;
64871;SDS011;51351;51.450;6.614;2023-07-22T15:55:53;3.33;;;1.63;;
64871;SDS011;51351;51.450;6.614;2023-07-22T16:00:46;4.38;;;1.50;;
64871;SDS011;51351;51.450;6.614;2023-07-22T16:03:13;4.13;;;2.00;;
64871;SDS011;51351;51.450;6.614;2023-07-22T16:05:40;2.00;;;1.33;;